Time;durP1;ratioP1;P1;durP2;ratioP2;P2;SDS_P1;SDS_P2;PMS_P1;PMS_P2;Temp;Humidity;BMP_temperature;BMP_pressure;BME280_temperature;BME280_humidity;BME280_pressure;Samples;Min_cycle;Max_cycle;Signal;HPM_P1;HPM_P2
2023/04/18 00:00:56;;;;;;;13.07;7.70;;;;;;;10.52;nan;-24110.84;4971544;28;20185;-65
2023/04/18 00:03:22;;;;;;;16.85;6.72;;;;;;;10.76;nan;-24117.47;4973065;28;20161;-68
2023/04/18 00:05:48;;;;;;;11.57;6.18;;;;;;;10.92;nan;-24122.00;4972933;28;20181;-68
2023/04/18 00:08:14;;;;;;;10.57;6.25;;;;;;;10.84;nan;-24119.75;4972781;28;20656;-66
2023/04/18 00:10:40;;;;;;;15.02;7.10;;;;;;;10.99;nan;-24124.13;4973093;28;20687;-66
2023/04/18 00:13:06;;;;;;;17.23;6.93;;;;;;;10.66;nan;-24114.66;4972797;28;20201;-69
2023/04/18 00:15:34;;;;;;;14.57;6.90;;;;;;;10.88;nan;-24120.88;4972694;28;20193;-70
2023/04/18 00:18:04;;;;;;;12.40;7.00;;;;;;;10.95;nan;-24122.84;4976389;28;20260;-67
2023/04/18 00:20:30;;;;;;;14.05;6.82;;;;;;;10.93;nan;-24122.28;4972792;28;20165;-65
2023/04/18 00:22:55;;;;;;;12.95;6.50;;;;;;;10.54;nan;-24111.41;4972770;28;20169;-67
2023/04/18 00:25:21;;;;;;;11.35;6.40;;;;;;;10.58;nan;-24112.69;4972737;28;20585;-67
2023/04/18 00:27:46;;;;;;;13.15;6.72;;;;;;;10.63;nan;-24113.97;4972578;28;20166;-70
2023/04/18 00:30:12;;;;;;;14.88;7.35;;;;;;;10.48;nan;-24109.72;4972295;28;20181;-68
2023/04/18 00:32:37;;;;;;;14.65;7.05;;;;;;;10.60;nan;-24113.25;4972387;28;20269;-71
2023/04/18 00:35:03;;;;;;;12.40;6.57;;;;;;;10.68;nan;-24115.38;4972549;28;20293;-69
2023/04/18 00:37:29;;;;;;;12.93;6.65;;;;;;;10.34;nan;-24105.78;4972472;28;20292;-69
2023/04/18 00:39:54;;;;;;;10.98;6.25;;;;;;;10.33;nan;-24105.50;4973502;28;20543;-66
2023/04/18 00:42:20;;;;;;;12.68;6.80;;;;;;;10.11;nan;-24099.41;4975935;28;20196;-71
2023/04/18 00:44:46;;;;;;;12.88;6.55;;;;;;;10.32;nan;-24105.34;4976020;28;20173;-70
2023/04/18 00:47:12;;;;;;;16.15;6.93;;;;;;;10.62;nan;-24113.69;4976152;28;20232;-67
2023/04/18 00:49:37;;;;;;;13.57;6.88;;;;;;;10.60;nan;-24113.25;4976074;28;20689;-67
2023/04/18 00:52:03;;;;;;;17.63;7.13;;;;;;;10.33;nan;-24105.63;4975827;28;20182;-71
2023/04/18 00:54:28;;;;;;;14.38;6.57;;;;;;;10.50;nan;-24110.44;4976161;28;20645;-66
2023/04/18 00:56:54;;;;;;;12.32;7.18;;;;;;;10.58;nan;-24112.69;4975900;28;20562;-67
2023/04/18 00:59:20;;;;;;;12.13;7.30;;;;;;;10.53;nan;-24111.28;4975701;28;20174;-66
2023/04/18 01:01:46;;;;;;;16.70;8.18;;;;;;;10.54;nan;-24111.56;4975845;28;20196;-67
2023/04/18 01:04:11;;;;;;;15.10;8.35;;;;;;;10.40;nan;-24107.63;4975710;28;20621;-70
2023/04/18 01:06:37;;;;;;;20.77;9.52;;;;;;;10.16;nan;-24100.84;4975368;28;20281;-69
2023/04/18 01:09:04;;;;;;;13.13;7.75;;;;;;;10.63;nan;-24113.97;4975857;28;20616;-70
2023/04/18 01:11:30;;;;;;;15.52;8.02;;;;;;;10.32;nan;-24105.22;4975418;28;20170;-69
2023/04/18 01:14:02;;;;;;;14.63;7.15;;;;;;;10.46;nan;-24109.16;4975287;28;20676;-69
2023/04/18 01:16:28;;;;;;;14.75;7.82;;;;;;;10.52;nan;-24111.00;4975160;28;20255;-68
2023/04/18 01:18:55;;;;;;;17.05;7.45;;;;;;;10.43;nan;-24108.47;4977473;28;20641;-66
2023/04/18 01:21:21;;;;;;;13.73;7.15;;;;;;;10.17;nan;-24101.25;4975449;28;20276;-66
2023/04/18 01:23:51;;;;;;;17.77;7.78;;;;;;;10.31;nan;-24105.06;4975556;28;20209;-68
2023/04/18 01:26:17;;;;;;;14.77;8.10;;;;;;;10.20;nan;-24101.97;4975424;28;20517;-70
2023/04/18 01:28:42;;;;;;;16.40;7.47;;;;;;;10.32;nan;-24105.22;4975109;28;20176;-69
2023/04/18 01:31:07;;;;;;;17.70;7.90;;;;;;;10.35;nan;-24106.19;4975702;28;20252;-70
2023/04/18 01:33:33;;;;;;;16.27;9.25;;;;;;;10.14;nan;-24100.41;4974760;28;20169;-68
2023/04/18 01:35:58;;;;;;;18.35;8.45;;;;;;;10.50;nan;-24110.44;4974827;28;20205;-70
2023/04/18 01:38:24;;;;;;;17.00;8.80;;;;;;;10.47;nan;-24109.44;4975140;28;20264;-69
2023/04/18 01:40:49;;;;;;;22.25;9.93;;;;;;;10.18;nan;-24101.41;4974851;28;20197;-69
2023/04/18 01:43:15;;;;;;;18.52;9.88;;;;;;;10.22;nan;-24102.53;4974021;28;20173;-68
2023/04/18 01:45:40;;;;;;;22.35;9.43;;;;;;;10.33;nan;-24105.50;4974954;28;20201;-68
2023/04/18 01:48:05;;;;;;;16.40;8.63;;;;;;;10.44;nan;-24108.59;4975019;28;20300;-69
2023/04/18 01:50:31;;;;;;;19.77;9.67;;;;;;;10.20;nan;-24101.97;4975293;28;20177;-67
2023/04/18 01:52:56;;;;;;;20.67;9.30;;;;;;;10.06;nan;-24098.16;4973908;28;20257;-67
2023/04/18 01:55:22;;;;;;;18.23;9.00;;;;;;;10.55;nan;-24111.84;4974880;28;20543;-67
2023/04/18 01:57:49;;;;;;;18.85;9.80;;;;;;;10.38;nan;-24107.03;4974908;28;20660;-71
2023/04/18 02:00:15;;;;;;;15.43;8.18;;;;;;;10.51;nan;-24110.72;4974510;28;20180;-70
2023/04/18 02:02:40;;;;;;;17.48;9.18;;;;;;;10.51;nan;-24110.72;4974290;28;20181;-68
2023/04/18 02:05:06;;;;;;;20.77;9.95;;;;;;;10.43;nan;-24108.47;4974579;28;20264;-68
2023/04/18 02:07:31;;;;;;;23.00;10.23;;;;;;;10.47;nan;-24109.44;4975173;28;20252;-69
2023/04/18 02:09:57;;;;;;;21.15;9.10;;;;;;;10.14;nan;-24100.41;4974633;28;20173;-70
2023/04/18 02:12:22;;;;;;;19.00;9.05;;;;;;;10.25;nan;-24103.38;4973627;28;20185;-69
2023/04/18 02:14:51;;;;;;;20.58;9.55;;;;;;;10.39;nan;-24107.19;4974143;28;20166;-69
2023/04/18 02:17:16;;;;;;;17.10;8.60;;;;;;;10.42;nan;-24108.16;4973761;28;20200;-66
2023/04/18 02:19:41;;;;;;;19.42;8.43;;;;;;;10.54;nan;-24111.41;4978164;28;20174;-68
2023/04/18 02:22:07;;;;;;;12.35;7.45;;;;;;;10.26;nan;-24103.66;4973864;28;20177;-68
2023/04/18 02:24:32;;;;;;;15.18;8.05;;;;;;;10.59;nan;-24112.81;4973830;28;20232;-66
2023/04/18 02:26:58;;;;;;;17.17;8.20;;;;;;;10.42;nan;-24108.03;4973875;28;20268;-70
2023/04/18 02:29:23;;;;;;;16.50;8.20;;;;;;;10.02;nan;-24096.88;4974006;28;20182;-66
2023/04/18 02:31:48;;;;;;;20.17;9.07;;;;;;;9.96;nan;-24095.31;4973666;28;20645;-68
2023/04/18 02:34:14;;;;;;;15.23;7.20;;;;;;;10.09;nan;-24098.84;4974400;28;20170;-68
2023/04/18 02:36:39;;;;;;;13.07;7.05;;;;;;;10.34;nan;-24105.78;4973578;28;20271;-69
2023/04/18 02:39:05;;;;;;;13.20;7.30;;;;;;;10.17;nan;-24101.13;4973488;28;20178;-66
2023/04/18 02:41:30;;;;;;;15.18;7.00;;;;;;;10.26;nan;-24103.66;4973651;28;20696;-68
2023/04/18 02:43:56;;;;;;;17.73;7.80;;;;;;;10.25;nan;-24103.22;4973612;28;20173;-69
2023/04/18 02:46:21;;;;;;;15.82;6.68;;;;;;;10.20;nan;-24101.97;4973718;28;20173;-68
2023/04/18 02:48:46;;;;;;;18.05;7.07;;;;;;;10.32;nan;-24105.22;4974563;28;20260;-65
2023/04/18 02:51:12;;;;;;;14.80;7.07;;;;;;;10.07;nan;-24098.28;4972718;28;20178;-69
2023/04/18 02:53:37;;;;;;;11.82;6.50;;;;;;;10.07;nan;-24098.28;4973754;28;20723;-70
2023/04/18 02:56:04;;;;;;;18.60;7.50;;;;;;;10.20;nan;-24101.97;4973574;28;20264;-67
2023/04/18 02:58:33;;;;;;;16.35;7.18;;;;;;;9.97;nan;-24095.47;4973647;28;20208;-68
2023/04/18 03:00:58;;;;;;;18.08;6.72;;;;;;;10.05;nan;-24097.88;4973637;28;20268;-66
2023/04/18 03:03:24;;;;;;;14.52;6.95;;;;;;;10.27;nan;-24103.94;4973735;28;20697;-68
2023/04/18 03:05:50;;;;;;;14.80;6.55;;;;;;;10.29;nan;-24104.50;4973965;28;20244;-68
2023/04/18 03:08:15;;;;;;;14.13;6.95;;;;;;;10.22;nan;-24102.53;4973434;28;20248;-69
2023/04/18 03:10:41;;;;;;;13.60;7.13;;;;;;;10.13;nan;-24099.97;4973643;28;20173;-71
2023/04/18 03:13:06;;;;;;;18.02;7.85;;;;;;;10.15;nan;-24100.53;4973267;28;20181;-69
2023/04/18 03:15:32;;;;;;;14.55;6.63;;;;;;;10.50;nan;-24110.44;4973426;28;20181;-69
2023/04/18 03:17:58;;;;;;;14.63;6.47;;;;;;;10.50;nan;-24110.44;4973332;28;20569;-68
2023/04/18 03:20:23;;;;;;;12.50;6.53;;;;;;;10.11;nan;-24099.41;4977589;28;20615;-68
2023/04/18 03:22:49;;;;;;;12.68;6.82;;;;;;;10.15;nan;-24100.69;4973544;28;20188;-69
2023/04/18 03:25:14;;;;;;;11.73;6.40;;;;;;;10.40;nan;-24107.63;4973265;28;20200;-70
2023/04/18 03:27:41;;;;;;;15.68;7.13;;;;;;;10.38;nan;-24107.03;4973124;28;20177;-67
2023/04/18 03:30:07;;;;;;;13.57;6.13;;;;;;;10.23;nan;-24102.81;4973044;28;20637;-68
2023/04/18 03:32:33;;;;;;;10.98;5.85;;;;;;;10.07;nan;-24098.44;4973587;28;20170;-67
2023/04/18 03:34:59;;;;;;;20.70;6.32;;;;;;;10.42;nan;-24108.03;4973448;28;20248;-68
2023/04/18 03:37:25;;;;;;;12.25;6.28;;;;;;;10.45;nan;-24109.03;4972853;28;20292;-69
2023/04/18 03:39:54;;;;;;;11.63;5.85;;;;;;;10.48;nan;-24109.72;4973072;28;20215;-72
2023/04/18 03:42:19;;;;;;;9.65;5.40;;;;;;;10.17;nan;-24101.13;4976435;28;20189;-67
2023/04/18 03:44:45;;;;;;;11.48;5.43;;;;;;;10.32;nan;-24105.34;4979931;28;20708;-67
2023/04/18 03:47:10;;;;;;;10.38;5.32;;;;;;;10.39;nan;-24107.31;4987077;28;20228;-70
2023/04/18 03:49:35;;;;;;;10.25;4.82;;;;;;;10.55;nan;-24111.84;4992432;28;20633;-67
2023/04/18 03:52:01;;;;;;;9.43;5.32;;;;;;;10.22;nan;-24102.53;4992165;28;20203;-68
2023/04/18 03:54:26;;;;;;;11.93;5.85;;;;;;;10.31;nan;-24105.06;4992265;28;20172;-66
2023/04/18 03:56:52;;;;;;;11.10;5.43;;;;;;;10.32;nan;-24105.22;4992219;28;20573;-70
2023/04/18 03:59:17;;;;;;;11.90;6.07;;;;;;;10.22;nan;-24102.53;4991965;28;20193;-69
2023/04/18 04:01:43;;;;;;;12.88;5.55;;;;;;;10.34;nan;-24105.91;4992220;28;20556;-65
2023/04/18 04:04:10;;;;;;;11.20;5.72;;;;;;;9.98;nan;-24095.88;4992818;28;20259;-66
2023/04/18 04:06:36;;;;;;;10.50;5.18;;;;;;;9.99;nan;-24096.16;4992309;28;20264;-68
2023/04/18 04:09:01;;;;;;;10.82;5.50;;;;;;;10.23;nan;-24102.81;4992137;28;20255;-67
2023/04/18 04:11:27;;;;;;;10.32;5.60;;;;;;;10.11;nan;-24099.41;4992065;28;20668;-70
2023/04/18 04:13:52;;;;;;;10.40;5.60;;;;;;;9.96;nan;-24095.19;4991769;28;20531;-70
2023/04/18 04:16:18;;;;;;;12.43;6.25;;;;;;;9.86;nan;-24092.34;4995601;28;20803;-69
2023/04/18 04:18:43;;;;;;;14.05;7.35;;;;;;;10.22;nan;-24102.38;4996058;28;20177;-69
2023/04/18 04:21:09;;;;;;;18.35;7.57;;;;;;;10.11;nan;-24099.56;5000500;28;20209;-67
2023/04/18 04:23:34;;;;;;;12.25;6.95;;;;;;;10.15;nan;-24100.69;4995718;28;20207;-68
2023/04/18 04:26:03;;;;;;;14.20;6.57;;;;;;;10.15;nan;-24100.69;4995074;28;20187;-68
2023/04/18 04:28:29;;;;;;;14.05;6.13;;;;;;;10.23;nan;-24102.81;4995454;28;20256;-71
2023/04/18 04:30:55;;;;;;;16.85;7.43;;;;;;;10.19;nan;-24101.81;4994035;28;20185;-67
2023/04/18 04:33:24;;;;;;;17.58;6.95;;;;;;;10.30;nan;-24104.78;4995601;28;20191;-70
2023/04/18 04:35:51;;;;;;;15.98;7.00;;;;;;;9.81;nan;-24091.09;4995206;28;20181;-69
2023/04/18 04:38:18;;;;;;;15.93;6.93;;;;;;;9.87;nan;-24092.63;4994903;28;20173;-68
2023/04/18 04:40:45;;;;;;;15.35;7.63;;;;;;;10.05;nan;-24097.88;4993867;28;20176;-72
2023/04/18 04:43:11;;;;;;;13.18;6.57;;;;;;;10.25;nan;-24103.38;4995170;28;20622;-71
2023/04/18 04:45:37;;;;;;;16.58;6.95;;;;;;;10.31;nan;-24105.06;4995255;28;20161;-70
2023/04/18 04:48:03;;;;;;;15.93;7.25;;;;;;;10.51;nan;-24110.72;4995040;28;20221;-69
2023/04/18 04:50:29;;;;;;;14.07;5.93;;;;;;;10.19;nan;-24101.69;4995205;28;20647;-69
2023/04/18 04:52:54;;;;;;;12.75;6.88;;;;;;;10.25;nan;-24103.38;4995379;28;20169;-70
2023/04/18 04:55:20;;;;;;;13.97;6.93;;;;;;;10.08;nan;-24098.72;4993718;28;20176;-71
2023/04/18 04:57:46;;;;;;;10.57;6.10;;;;;;;10.33;nan;-24105.63;4994851;28;20267;-70
2023/04/18 05:00:13;;;;;;;12.27;6.53;;;;;;;10.52;nan;-24111.00;4995153;28;20173;-69
2023/04/18 05:02:38;;;;;;;13.10;6.40;;;;;;;10.37;nan;-24106.63;4995657;28;20157;-69
2023/04/18 05:05:04;;;;;;;19.60;7.53;;;;;;;10.54;nan;-24111.41;4995149;28;20168;-68
2023/04/18 05:07:29;;;;;;;14.90;7.00;;;;;;;10.84;nan;-24119.75;4976904;28;20184;-71
2023/04/18 05:09:55;;;;;;;12.52;5.80;;;;;;;10.75;nan;-24117.34;4974006;28;20204;-68
2023/04/18 05:12:20;;;;;;;15.38;6.25;;;;;;;10.61;nan;-24113.53;4973394;28;20264;-70
2023/04/18 05:14:45;;;;;;;16.25;6.68;;;;;;;10.81;nan;-24118.91;4972659;28;20188;-71
2023/04/18 05:17:11;;;;;;;13.82;6.70;;;;;;;10.87;nan;-24120.72;4974881;28;20202;-68
2023/04/18 05:19:36;;;;;;;14.52;6.20;;;;;;;10.50;nan;-24110.44;4975661;28;20501;-68
2023/04/18 05:22:01;;;;;;;14.02;6.30;;;;;;;10.26;nan;-24103.66;4977328;28;20252;-68
2023/04/18 05:24:27;;;;;;;12.93;6.63;;;;;;;10.80;nan;-24118.63;4973510;28;20182;-68
2023/04/18 05:26:53;;;;;;;15.10;6.60;;;;;;;10.89;nan;-24121.28;4973349;28;20269;-68
2023/04/18 05:29:18;;;;;;;9.93;5.53;;;;;;;10.66;nan;-24114.66;4975326;28;20177;-75
2023/04/18 05:31:43;;;;;;;17.55;7.20;;;;;;;10.74;nan;-24117.06;4975128;28;20264;-72
2023/04/18 05:34:09;;;;;;;13.82;5.55;;;;;;;10.54;nan;-24111.56;4975021;28;20715;-70
2023/04/18 05:36:34;;;;;;;13.57;6.53;;;;;;;10.59;nan;-24112.97;4974659;28;20229;-71
2023/04/18 05:39:00;;;;;;;15.13;7.55;;;;;;;10.87;nan;-24120.59;4994762;28;20186;-69
2023/04/18 05:41:25;;;;;;;16.25;6.90;;;;;;;10.67;nan;-24114.94;4994254;28;20570;-74
2023/04/18 05:43:50;;;;;;;14.95;6.50;;;;;;;10.82;nan;-24119.19;4992691;28;20196;-70
2023/04/18 05:46:16;;;;;;;12.18;6.00;;;;;;;11.29;nan;-24132.28;4994210;28;20680;-70
2023/04/18 05:48:41;;;;;;;13.95;7.28;;;;;;;11.13;nan;-24127.78;4994427;28;20212;-69
2023/04/18 05:51:07;;;;;;;16.45;6.80;;;;;;;11.24;nan;-24131.03;4994178;28;20196;-71
2023/04/18 05:53:32;;;;;;;15.88;7.07;;;;;;;11.35;nan;-24134.13;4994332;28;20203;-70
2023/04/18 05:55:58;;;;;;;17.40;6.80;;;;;;;11.53;nan;-24139.19;4993889;28;20307;-71
2023/04/18 05:58:24;;;;;;;13.07;6.07;;;;;;;11.50;nan;-24138.22;4994224;28;20613;-68
2023/04/18 06:00:49;;;;;;;14.32;6.57;;;;;;;11.76;nan;-24145.53;4993963;28;20179;-71
2023/04/18 06:03:15;;;;;;;11.70;6.57;;;;;;;11.80;nan;-24146.66;4994138;28;20255;-67
2023/04/18 06:05:40;;;;;;;16.30;6.53;;;;;;;11.67;nan;-24142.84;4993640;28;20606;-69
2023/04/18 06:08:06;;;;;;;14.93;6.97;;;;;;;12.01;nan;-24152.28;4993641;28;20259;-69
2023/04/18 06:10:32;;;;;;;13.93;6.28;;;;;;;12.03;nan;-24152.84;4993888;28;20187;-68
2023/04/18 06:12:57;;;;;;;13.32;6.05;;;;;;;12.02;nan;-24152.56;4993405;28;20173;-67
2023/04/18 06:15:23;;;;;;;12.95;6.32;;;;;;;12.32;nan;-24161.16;4993879;28;20554;-70
2023/04/18 06:17:48;;;;;;;14.90;6.13;;;;;;;12.36;nan;-24162.16;4993452;28;20659;-70
2023/04/18 06:20:13;;;;;;;11.07;6.40;;;;;;;12.46;nan;-24164.97;4994744;28;20165;-68
2023/04/18 06:22:39;;;;;;;13.23;6.20;;;;;;;12.52;nan;-24166.50;4993835;28;20225;-70
2023/04/18 06:25:05;;;;;;;12.15;5.82;;;;;;;12.51;nan;-24166.22;4992333;28;20177;-68
2023/04/18 06:27:30;;;;;;;11.38;5.80;;;;;;;12.58;nan;-24168.19;4992505;28;20189;-68
2023/04/18 06:29:56;;;;;;;12.48;5.85;;;;;;;12.69;nan;-24171.28;4992798;28;20169;-69
2023/04/18 06:32:21;;;;;;;12.55;6.80;;;;;;;12.89;nan;-24176.78;4993508;28;20169;-69
2023/04/18 06:34:46;;;;;;;11.48;5.53;;;;;;;12.87;nan;-24176.34;4992866;28;20242;-73
2023/04/18 06:37:12;;;;;;;14.65;6.13;;;;;;;12.65;nan;-24170.16;4992830;28;20200;-68
2023/04/18 06:39:37;;;;;;;13.75;5.75;;;;;;;12.66;nan;-24170.44;4992718;28;20201;-69
2023/04/18 06:42:03;;;;;;;10.88;5.50;;;;;;;12.62;nan;-24169.47;4993058;28;20476;-70
2023/04/18 06:44:30;;;;;;;12.55;5.90;;;;;;;12.81;nan;-24174.66;4993004;28;20216;-68
2023/04/18 06:46:56;;;;;;;16.27;6.97;;;;;;;12.66;nan;-24170.59;4992883;28;20228;-69
2023/04/18 06:49:21;;;;;;;14.68;6.20;;;;;;;12.91;nan;-24177.47;4992716;28;20167;-65
2023/04/18 06:51:46;;;;;;;14.93;6.90;;;;;;;13.16;nan;-24184.50;4991463;28;20212;-67
2023/04/18 06:54:12;;;;;;;12.25;6.18;;;;;;;13.10;nan;-24182.81;4992244;28;20176;-69
2023/04/18 06:56:37;;;;;;;14.02;7.30;;;;;;;13.79;nan;-24201.91;4992671;28;20219;-65
2023/04/18 06:59:03;;;;;;;10.40;5.47;;;;;;;14.05;nan;-24209.09;4992398;28;20180;-69
2023/04/18 07:01:31;;;;;;;11.15;6.10;;;;;;;13.86;nan;-24203.75;4992434;28;20169;-67
2023/04/18 07:03:57;;;;;;;11.32;5.60;;;;;;;13.24;nan;-24186.63;4991944;28;20271;-70
2023/04/18 07:06:22;;;;;;;10.82;5.53;;;;;;;13.30;nan;-24188.16;4992406;28;20173;-67
2023/04/18 07:08:48;;;;;;;12.25;5.47;;;;;;;14.04;nan;-24208.94;4991990;28;20165;-67
2023/04/18 07:11:14;;;;;;;13.23;6.18;;;;;;;14.41;nan;-24219.19;4992641;28;20184;-67
2023/04/18 07:13:39;;;;;;;13.38;6.20;;;;;;;14.45;nan;-24220.16;4992353;28;20537;-72
2023/04/18 07:16:05;;;;;;;11.70;6.63;;;;;;;14.68;nan;-24226.47;4992372;28;20211;-71
2023/04/18 07:18:31;;;;;;;11.88;6.15;;;;;;;14.34;nan;-24217.06;4992550;28;20173;-69
2023/04/18 07:20:57;;;;;;;12.43;6.10;;;;;;;13.82;nan;-24202.63;4994888;28;20633;-67
2023/04/18 07:23:23;;;;;;;11.63;5.70;;;;;;;14.35;nan;-24217.34;4993547;28;20181;-70
2023/04/18 07:25:48;;;;;;;11.43;6.30;;;;;;;14.94;nan;-24233.91;4992177;28;20181;-66
2023/04/18 07:28:13;;;;;;;11.02;5.30;;;;;;;15.41;nan;-24246.94;4992021;28;20191;-67
2023/04/18 07:30:39;;;;;;;11.55;5.57;;;;;;;15.40;nan;-24246.50;4992017;28;20189;-68
2023/04/18 07:33:05;;;;;;;11.68;5.65;;;;;;;15.54;nan;-24250.44;4992027;28;20256;-68
2023/04/18 07:35:30;;;;;;;9.15;5.25;;;;;;;16.00;nan;-24263.03;4991872;28;20267;-70
2023/04/18 07:37:56;;;;;;;13.80;5.45;;;;;;;15.33;nan;-24244.56;4991503;28;20173;-68
2023/04/18 07:40:21;;;;;;;12.68;5.88;;;;;;;15.78;nan;-24257.16;4991653;28;20268;-66
2023/04/18 07:42:46;;;;;;;10.48;5.68;;;;;;;15.39;nan;-24246.22;4992089;28;20231;-72
2023/04/18 07:45:12;;;;;;;10.82;5.63;;;;;;;15.37;nan;-24245.81;4991917;28;20667;-69
2023/04/18 07:47:37;;;;;;;10.95;5.57;;;;;;;16.02;nan;-24263.59;4989628;28;20620;-67
2023/04/18 07:50:03;;;;;;;11.57;5.85;;;;;;;16.12;nan;-24266.53;4993097;28;20520;-68
2023/04/18 07:52:28;;;;;;;13.48;5.38;;;;;;;16.54;nan;-24278.13;4994370;28;20631;-71
2023/04/18 07:54:54;;;;;;;7.47;4.60;;;;;;;16.47;nan;-24276.16;4995678;28;20263;-71
2023/04/18 07:57:19;;;;;;;7.72;5.20;;;;;;;16.00;nan;-24263.16;4996016;28;20197;-72
2023/04/18 07:59:45;;;;;;;9.93;5.47;;;;;;;16.12;nan;-24266.53;4995840;28;20203;-71
2023/04/18 08:02:10;;;;;;;11.65;5.28;;;;;;;16.54;nan;-24278.00;4995616;28;20184;-71
2023/04/18 08:04:36;;;;;;;11.77;6.05;;;;;;;16.38;nan;-24273.50;4995552;28;20195;-70
2023/04/18 08:07:01;;;;;;;14.18;6.80;;;;;;;15.79;nan;-24257.28;4995968;28;20180;-70
2023/04/18 08:09:26;;;;;;;10.30;5.43;;;;;;;16.10;nan;-24265.81;4995916;28;20211;-69
2023/04/18 08:11:54;;;;;;;10.60;5.88;;;;;;;16.00;nan;-24263.16;4995623;28;20172;-71
2023/04/18 08:14:19;;;;;;;10.73;5.70;;;;;;;16.23;nan;-24269.59;4995564;28;20177;-70
2023/04/18 08:16:45;;;;;;;12.00;6.20;;;;;;;15.66;nan;-24253.78;4994438;28;20203;-69
2023/04/18 08:19:10;;;;;;;14.05;7.65;;;;;;;16.00;nan;-24263.03;4995763;28;20184;-67
2023/04/18 08:21:36;;;;;;;14.00;6.93;;;;;;;15.71;nan;-24255.06;5000444;28;20228;-68
2023/04/18 08:24:01;;;;;;;15.63;6.60;;;;;;;15.64;nan;-24253.22;4995380;28;20169;-67
2023/04/18 08:26:26;;;;;;;14.88;6.85;;;;;;;16.05;nan;-24264.56;4995793;28;20208;-68
2023/04/18 08:28:52;;;;;;;15.65;7.70;;;;;;;15.61;nan;-24252.25;4991347;28;20185;-67
2023/04/18 08:31:17;;;;;;;16.55;8.07;;;;;;;15.13;nan;-24239.09;4980982;28;20200;-67
2023/04/18 08:33:43;;;;;;;12.20;6.30;;;;;;;15.02;nan;-24236.00;4976240;28;20173;-71
2023/04/18 08:36:08;;;;;;;12.88;6.10;;;;;;;15.09;nan;-24237.81;4975483;28;20243;-68
2023/04/18 08:38:34;;;;;;;14.52;5.78;;;;;;;15.09;nan;-24237.97;4975671;28;20177;-71
2023/04/18 08:40:59;;;;;;;11.55;6.15;;;;;;;14.78;nan;-24229.41;4975866;28;20644;-71
2023/04/18 08:43:25;;;;;;;11.57;6.55;;;;;;;14.85;nan;-24231.38;4975695;28;20485;-75
2023/04/18 08:45:57;;;;;;;11.35;5.45;;;;;;;15.04;nan;-24236.72;4975175;28;20651;-68
2023/04/18 08:48:23;;;;;;;10.75;5.40;;;;;;;14.91;nan;-24232.94;4974886;28;20228;-72
2023/04/18 08:50:48;;;;;;;13.88;6.25;;;;;;;15.16;nan;-24239.78;4975604;28;20174;-73
2023/04/18 08:53:13;;;;;;;10.30;5.35;;;;;;;15.20;nan;-24240.91;4975457;28;20264;-70
2023/04/18 08:55:39;;;;;;;9.15;5.10;;;;;;;15.17;nan;-24240.22;4975853;28;20177;-67
2023/04/18 08:58:05;;;;;;;8.10;4.90;;;;;;;15.07;nan;-24237.28;4974049;28;20213;-73
2023/04/18 09:00:31;;;;;;;11.48;5.53;;;;;;;15.30;nan;-24243.72;4974865;28;20181;-72
2023/04/18 09:02:58;;;;;;;11.00;5.90;;;;;;;15.31;nan;-24244.13;4975330;28;20268;-71
2023/04/18 09:05:25;;;;;;;10.52;5.20;;;;;;;14.95;nan;-24234.03;4975024;28;20260;-72
2023/04/18 09:07:52;;;;;;;8.80;4.45;;;;;;;14.94;nan;-24233.75;4975114;28;20181;-70
2023/04/18 09:10:32;;;;;;;11.38;5.25;;;;;;;14.59;nan;-24224.22;4976226;28;20567;-73
2023/04/18 09:13:01;;;;;;;11.18;5.78;;;;;;;14.63;nan;-24225.06;4979098;28;20165;-69
2023/04/18 09:15:28;;;;;;;11.00;5.10;;;;;;;14.24;nan;-24214.41;4975117;28;20244;-67
2023/04/18 09:17:56;;;;;;;9.48;5.05;;;;;;;13.51;nan;-24194.06;4981507;28;20179;-70
2023/04/18 09:20:43;;;;;;;10.40;4.97;;;;;;;13.37;nan;-24190.25;4977808;28;20252;-71
2023/04/18 09:23:13;;;;;;;10.27;5.07;;;;;;;13.28;nan;-24187.75;4979111;28;20252;-71
2023/04/18 09:25:47;;;;;;;13.70;4.90;;;;;;;13.05;nan;-24181.41;4975311;28;20641;-68
2023/04/18 09:28:28;;;;;;;11.45;5.63;;;;;;;12.59;nan;-24168.47;4975030;28;20168;-71
2023/04/18 09:31:08;;;;;;;11.48;5.53;;;;;;;12.23;nan;-24158.50;4974999;28;20580;-69
2023/04/18 09:33:35;;;;;;;12.25;5.88;;;;;;;11.99;nan;-24151.72;4974556;28;20514;-72
2023/04/18 09:36:18;;;;;;;13.27;6.78;;;;;;;11.92;nan;-24150.03;4974796;28;20196;-68
2023/04/18 09:38:44;;;;;;;12.98;6.68;;;;;;;11.35;nan;-24134.13;4974694;28;20273;-69
2023/04/18 09:41:11;;;;;;;13.02;6.35;;;;;;;12.05;nan;-24153.56;4974684;28;20173;-67
2023/04/18 09:43:36;;;;;;;15.20;6.32;;;;;;;11.96;nan;-24151.03;4974828;28;20212;-67
2023/04/18 09:46:06;;;;;;;14.43;7.38;;;;;;;11.92;nan;-24149.91;4974598;28;20275;-69
2023/04/18 09:48:32;;;;;;;13.02;6.50;;;;;;;12.03;nan;-24153.00;4974099;28;20230;-68
2023/04/18 09:51:04;;;;;;;13.68;6.38;;;;;;;11.75;nan;-24145.13;4974522;28;20184;-66
2023/04/18 09:53:29;;;;;;;17.05;7.70;;;;;;;11.94;nan;-24150.47;4974265;28;20561;-66
2023/04/18 09:55:56;;;;;;;15.55;6.68;;;;;;;11.94;nan;-24150.59;4974325;28;20193;-67
2023/04/18 09:58:24;;;;;;;13.43;6.32;;;;;;;12.04;nan;-24153.28;4974259;28;20295;-67
2023/04/18 10:00:51;;;;;;;13.48;6.75;;;;;;;12.02;nan;-24152.56;4974501;28;20181;-68
2023/04/18 10:03:18;;;;;;;12.95;6.15;;;;;;;11.95;nan;-24150.75;4974224;28;20178;-69
2023/04/18 10:05:44;;;;;;;13.00;5.63;;;;;;;11.27;nan;-24131.88;4972748;28;20236;-70
2023/04/18 10:08:12;;;;;;;15.50;6.82;;;;;;;11.48;nan;-24137.63;4973379;28;20269;-67
2023/04/18 10:10:38;;;;;;;15.23;7.30;;;;;;;11.66;nan;-24142.56;4973480;28;20178;-68
2023/04/18 10:13:07;;;;;;;16.27;7.03;;;;;;;11.47;nan;-24137.34;4972203;28;20200;-65
2023/04/18 10:15:32;;;;;;;14.00;6.22;;;;;;;11.77;nan;-24145.69;4973697;28;20200;-66
2023/04/18 10:18:17;;;;;;;13.20;7.10;;;;;;;11.62;nan;-24141.44;4973196;28;20594;-70
2023/04/18 10:20:43;;;;;;;13.75;6.35;;;;;;;11.56;nan;-24139.91;4974096;28;20169;-69
2023/04/18 10:23:39;;;;;;;13.98;6.55;;;;;;;11.95;nan;-24150.75;4978624;28;20547;-70
2023/04/18 10:26:09;;;;;;;14.88;7.15;;;;;;;11.81;nan;-24146.81;4972400;28;20184;-69
2023/04/18 10:28:53;;;;;;;16.40;7.15;;;;;;;11.44;nan;-24136.50;4972654;28;20687;-70
2023/04/18 10:31:23;;;;;;;14.23;7.22;;;;;;;11.49;nan;-24137.94;4973313;28;20575;-71
2023/04/18 10:33:52;;;;;;;17.27;7.75;;;;;;;11.69;nan;-24143.41;4973620;28;20197;-70
2023/04/18 10:36:21;;;;;;;19.33;8.13;;;;;;;11.52;nan;-24138.78;4973358;28;20197;-70
2023/04/18 10:38:58;;;;;;;19.90;7.93;;;;;;;11.80;nan;-24146.66;4973403;28;20179;-67
2023/04/18 10:41:27;;;;;;;17.38;7.60;;;;;;;11.98;nan;-24151.44;4973346;28;20180;-68
2023/04/18 10:46:38;;;;;;;18.95;7.68;;;;;;;12.15;nan;-24156.38;4973094;28;20211;-69
2023/04/18 10:49:22;;;;;;;17.88;8.07;;;;;;;12.42;nan;-24163.69;4973408;28;20247;-67
2023/04/18 10:51:52;;;;;;;21.55;8.95;;;;;;;12.81;nan;-24174.66;4973059;28;20162;-69
2023/04/18 10:54:49;;;;;;;18.67;9.32;;;;;;;12.92;nan;-24177.63;4973422;28;20232;-69
2023/04/18 10:57:15;;;;;;;23.52;9.23;;;;;;;13.05;nan;-24181.28;4973424;28;20256;-67
2023/04/18 10:59:42;;;;;;;19.70;9.45;;;;;;;12.64;nan;-24169.88;4972712;28;20653;-68
2023/04/18 11:02:17;;;;;;;19.85;9.20;;;;;;;12.99;nan;-24179.59;4972605;28;20166;-69
2023/04/18 11:04:48;;;;;;;17.15;8.20;;;;;;;12.71;nan;-24172.00;4973102;28;20169;-68
2023/04/18 11:07:14;;;;;;;17.67;7.65;;;;;;;13.14;nan;-24183.94;4973104;28;20174;-69
2023/04/18 11:09:39;;;;;;;19.42;8.60;;;;;;;13.33;nan;-24189.00;4972789;28;20188;-67
2023/04/18 11:12:10;;;;;;;16.80;7.20;;;;;;;13.16;nan;-24184.50;4971238;28;20188;-68
2023/04/18 11:14:43;;;;;;;19.08;8.50;;;;;;;13.64;nan;-24197.84;4972756;28;20203;-68
2023/04/18 11:17:37;;;;;;;18.92;9.07;;;;;;;14.07;nan;-24209.63;4972551;28;20232;-68
2023/04/18 11:20:12;;;;;;;18.13;8.55;;;;;;;14.03;nan;-24208.53;4970706;28;20193;-68
2023/04/18 11:22:49;;;;;;;20.88;8.43;;;;;;;14.04;nan;-24208.81;4973833;28;20625;-69
2023/04/18 11:25:16;;;;;;;20.83;10.27;;;;;;;14.24;nan;-24214.41;4973366;28;20184;-70
2023/04/18 11:27:43;;;;;;;19.58;8.77;;;;;;;14.34;nan;-24217.06;4972859;28;20679;-69
2023/04/18 11:30:10;;;;;;;19.20;8.32;;;;;;;14.13;nan;-24211.47;4972824;28;20208;-72
2023/04/18 11:32:35;;;;;;;19.30;8.60;;;;;;;13.81;nan;-24202.50;4972441;28;20180;-69
2023/04/18 11:35:02;;;;;;;19.45;8.38;;;;;;;14.06;nan;-24209.34;4972532;28;20177;-68